createdAt,value
2018-05-03T00:00:12.915Z,8.27
2018-05-03T00:02:40.706Z,7.77
2018-05-03T00:05:08.253Z,8.27
2018-05-03T00:07:35.801Z,7.23
2018-05-03T00:10:03.269Z,7.60
2018-05-03T00:12:30.759Z,8.23
2018-05-03T00:14:58.430Z,7.57
2018-05-03T00:17:25.970Z,7.47
2018-05-03T00:19:53.560Z,9.53
2018-05-03T00:22:21.030Z,8.10
2018-05-03T00:24:48.501Z,9.60
2018-05-03T00:27:15.966Z,7.70
2018-05-03T00:29:43.414Z,7.40
2018-05-03T00:32:10.889Z,6.50
2018-05-03T00:34:38.350Z,7.17
2018-05-03T00:37:05.834Z,7.13
2018-05-03T00:39:33.296Z,7.87
2018-05-03T00:42:01.531Z,7.57
2018-05-03T00:44:29.005Z,10.87
2018-05-03T00:46:56.464Z,7.23
2018-05-03T00:49:23.928Z,7.30
2018-05-03T00:51:51.390Z,6.73
2018-05-03T00:54:43.229Z,7.10
2018-05-03T00:57:11.441Z,7.20
2018-05-03T00:59:38.910Z,13.07
2018-05-03T01:02:06.379Z,7.47
2018-05-03T01:04:33.839Z,6.70
2018-05-03T01:07:01.311Z,7.80
2018-05-03T01:09:28.782Z,7.60
2018-05-03T01:11:56.253Z,8.50
2018-05-03T01:14:24.495Z,9.13
2018-05-03T01:16:51.959Z,10.27
2018-05-03T01:19:19.424Z,8.10
2018-05-03T01:21:46.887Z,11.70
2018-05-03T01:24:14.353Z,10.33
2018-05-03T01:26:42.589Z,8.40
2018-05-03T01:29:10.044Z,9.27
2018-05-03T01:31:37.508Z,7.97
2018-05-03T01:34:05.015Z,8.23
2018-05-03T01:36:32.463Z,9.23
2018-05-03T01:38:59.947Z,8.27
2018-05-03T01:41:27.418Z,9.30
2018-05-03T01:43:54.889Z,7.97
2018-05-03T01:46:22.344Z,9.90
2018-05-03T01:48:49.819Z,12.60
2018-05-03T01:51:17.317Z,9.40
2018-05-03T01:53:44.793Z,10.47
2018-05-03T01:56:12.276Z,10.87
2018-05-03T01:58:39.735Z,8.67
2018-05-03T02:01:07.203Z,10.23
2018-05-03T02:03:34.699Z,7.87
2018-05-03T02:06:02.170Z,8.47
2018-05-03T02:08:29.642Z,10.07
2018-05-03T02:10:57.845Z,9.57
2018-05-03T02:13:25.313Z,10.53
2018-05-03T02:15:52.803Z,10.50
2018-05-03T02:18:20.246Z,7.97
2018-05-03T02:20:48.481Z,8.47
2018-05-03T02:23:15.952Z,10.20
2018-05-03T02:25:43.410Z,9.63
2018-05-03T02:28:10.885Z,8.47
2018-05-03T02:30:39.111Z,9.23
2018-05-03T02:33:06.576Z,9.80
2018-05-03T02:35:34.038Z,9.03
2018-05-03T02:38:01.505Z,10.93
2018-05-03T02:40:28.983Z,9.17
2018-05-03T02:42:56.441Z,8.43
2018-05-03T02:45:24.683Z,9.27
2018-05-03T02:47:52.144Z,12.57
2018-05-03T02:50:19.613Z,8.67
2018-05-03T02:52:47.090Z,12.00
2018-05-03T02:55:15.326Z,9.50
2018-05-03T02:58:00.317Z,9.80
2018-05-03T03:00:45.143Z,10.17
2018-05-03T03:03:30.290Z,11.40
2018-05-03T03:06:09.704Z,13.13
2018-05-03T03:09:07.546Z,14.90
2018-05-03T03:11:52.502Z,16.30
2018-05-03T03:14:37.587Z,11.50
2018-05-03T03:17:22.648Z,15.20
2018-05-03T03:33:44.023Z,13.67
2018-05-03T03:36:23.379Z,16.63
2018-05-03T03:39:02.665Z,11.13
2018-05-03T03:41:39.938Z,12.30
2018-05-03T03:44:19.108Z,11.47
2018-05-03T03:46:46.572Z,10.60
2018-05-03T03:49:14.036Z,12.13
2018-05-03T03:51:41.501Z,13.70
2018-05-03T03:54:08.963Z,17.50
2018-05-03T03:56:36.449Z,14.77
2018-05-03T03:59:03.935Z,12.70
2018-05-03T04:01:32.176Z,11.67
2018-05-03T04:03:59.630Z,15.20
2018-05-03T04:06:27.098Z,14.60
2018-05-03T04:08:54.592Z,14.47
2018-05-03T04:11:22.063Z,13.27
2018-05-03T04:13:49.550Z,15.67
2018-05-03T04:16:17.001Z,14.87
2018-05-03T04:18:56.208Z,14.90
2018-05-03T04:21:35.551Z,15.33
2018-05-03T04:24:14.766Z,21.37
2018-05-03T04:26:42.249Z,27.27
2018-05-03T04:29:09.718Z,23.33
2018-05-03T04:31:37.201Z,18.00
2018-05-03T04:34:04.663Z,17.10
2018-05-03T04:36:32.137Z,14.80
2018-05-03T04:39:00.409Z,18.73
2018-05-03T04:41:28.670Z,16.40
2018-05-03T04:43:56.144Z,14.90
2018-05-03T04:46:24.498Z,22.23
2018-05-03T04:48:51.950Z,20.53
2018-05-03T04:51:19.430Z,14.07
2018-05-03T04:53:47.654Z,10.37
2018-05-03T04:56:15.125Z,12.90
2018-05-03T04:58:42.589Z,11.93
2018-05-03T05:01:10.064Z,11.03
2018-05-03T05:03:37.545Z,13.90
2018-05-03T05:06:05.074Z,20.60
2018-05-03T05:08:32.501Z,25.23
2018-05-03T05:10:59.976Z,20.87
2018-05-03T05:13:27.432Z,16.83
2018-05-03T05:15:54.922Z,14.63
2018-05-03T05:18:22.449Z,14.93
2018-05-03T05:20:49.865Z,14.27
2018-05-03T05:23:17.318Z,15.00
2018-05-03T05:25:44.787Z,14.70
2018-05-03T05:28:12.271Z,14.93
2018-05-03T05:30:39.773Z,11.20
2018-05-03T05:33:07.257Z,12.03
2018-05-03T05:35:34.716Z,13.23
2018-05-03T05:38:02.171Z,11.93
2018-05-03T05:40:29.641Z,11.93
2018-05-03T05:42:57.093Z,12.93
2018-05-03T05:45:24.577Z,14.77
2018-05-03T05:47:52.054Z,16.40
2018-05-03T05:50:19.522Z,17.73
2018-05-03T05:52:47.790Z,14.87
2018-05-03T05:55:15.241Z,15.10
2018-05-03T05:57:42.739Z,14.43
2018-05-03T06:00:10.209Z,14.00
2018-05-03T06:02:37.778Z,13.80
2018-05-03T06:05:05.204Z,17.43
2018-05-03T06:07:32.707Z,10.77
2018-05-03T06:10:00.235Z,11.07
2018-05-03T06:12:27.730Z,12.77
2018-05-03T06:14:55.218Z,12.20
2018-05-03T06:17:23.493Z,11.87
2018-05-03T06:19:51.712Z,11.40
2018-05-03T06:22:19.192Z,14.13
2018-05-03T06:24:46.689Z,13.83
2018-05-03T06:27:14.992Z,14.50
2018-05-03T06:29:42.492Z,13.07
2018-05-03T06:32:09.967Z,14.27
2018-05-03T06:34:37.450Z,16.87
2018-05-03T06:37:04.953Z,19.70
2018-05-03T06:39:32.430Z,19.03
2018-05-03T06:41:59.955Z,22.83
2018-05-03T06:44:27.450Z,20.70
2018-05-03T06:46:54.918Z,20.20
2018-05-03T06:49:22.428Z,24.90
2018-05-03T06:51:49.911Z,27.33
2018-05-03T06:54:17.407Z,25.13
2018-05-03T06:56:45.657Z,20.63
2018-05-03T06:59:13.136Z,25.87
2018-05-03T07:01:40.662Z,25.47
2018-05-03T07:04:08.171Z,25.20
2018-05-03T07:06:35.630Z,24.13
2018-05-03T07:09:03.132Z,31.57
2018-05-03T07:11:30.637Z,25.53
2018-05-03T07:13:58.132Z,30.33
2018-05-03T07:16:25.762Z,24.70
2018-05-03T07:18:53.878Z,28.23
2018-05-03T07:21:21.362Z,28.33
2018-05-03T07:23:49.613Z,26.20
2018-05-03T07:26:17.081Z,27.63
2018-05-03T07:28:44.594Z,31.70
2018-05-03T07:31:12.078Z,29.97
2018-05-03T07:33:39.548Z,28.33
2018-05-03T07:36:07.023Z,25.43
2018-05-03T07:38:34.554Z,21.83
2018-05-03T07:41:02.030Z,31.20
2018-05-03T07:43:29.512Z,21.50
2018-05-03T07:45:57.039Z,24.60
2018-05-03T07:48:24.541Z,26.30
2018-05-03T07:50:52.073Z,23.20
2018-05-03T07:53:19.554Z,25.30
2018-05-03T07:55:47.031Z,18.57
2018-05-03T07:58:14.539Z,20.77
2018-05-03T08:00:41.967Z,23.70
2018-05-03T08:03:09.447Z,22.63
2018-05-03T08:05:36.931Z,22.30
2018-05-03T08:08:05.167Z,18.00
2018-05-03T08:10:32.670Z,15.90
2018-05-03T08:13:00.154Z,18.00
2018-05-03T08:15:27.621Z,15.97
2018-05-03T08:17:55.118Z,12.77
2018-05-03T08:20:22.615Z,10.33
2018-05-03T08:22:50.102Z,13.07
2018-05-03T08:25:17.646Z,12.20
2018-05-03T08:27:45.115Z,9.83
2018-05-03T08:30:12.594Z,10.63
2018-05-03T08:32:40.091Z,12.90
2018-05-03T08:35:07.612Z,9.97
2018-05-03T08:37:35.921Z,10.43
2018-05-03T08:40:03.417Z,8.60
2018-05-03T08:42:30.895Z,9.00
2018-05-03T08:44:58.346Z,10.10
2018-05-03T08:47:26.025Z,8.13
2018-05-03T08:49:53.499Z,10.70
2018-05-03T08:52:22.641Z,17.07
2018-05-03T08:54:50.118Z,7.70
2018-05-03T08:57:17.589Z,11.30
2018-05-03T08:59:45.067Z,7.73
2018-05-03T09:02:13.325Z,9.80
2018-05-03T09:04:41.593Z,9.43
2018-05-03T09:07:09.079Z,8.63
2018-05-03T09:09:36.570Z,14.90
2018-05-03T09:12:04.156Z,8.00
2018-05-03T09:14:31.684Z,7.80
2018-05-03T09:16:59.169Z,9.47
2018-05-03T09:19:26.671Z,9.03
2018-05-03T09:21:54.124Z,10.10
2018-05-03T09:24:22.397Z,8.77
2018-05-03T09:26:50.742Z,9.83
2018-05-03T09:29:18.244Z,9.10
2018-05-03T09:31:45.761Z,13.80
2018-05-03T09:34:13.237Z,8.00
2018-05-03T09:36:40.700Z,10.17
2018-05-03T09:39:08.294Z,9.43
2018-05-03T09:41:35.657Z,7.30
2018-05-03T09:44:03.141Z,8.07
2018-05-03T09:46:30.628Z,8.63
2018-05-03T09:48:58.097Z,8.03
2018-05-03T09:51:26.341Z,8.53
2018-05-03T09:53:53.825Z,7.10
2018-05-03T09:56:21.293Z,8.13
2018-05-03T09:58:48.790Z,14.63
2018-05-03T10:01:16.292Z,7.70
2018-05-03T10:03:43.765Z,6.50
2018-05-03T10:06:11.990Z,10.20
2018-05-03T10:08:39.483Z,8.67
2018-05-03T10:11:06.945Z,7.30
2018-05-03T10:13:34.418Z,7.23
2018-05-03T10:16:01.908Z,6.93
2018-05-03T10:18:29.402Z,4.83
2018-05-03T10:20:56.877Z,7.10
2018-05-03T10:23:25.129Z,5.83
2018-05-03T10:25:52.603Z,7.03
2018-05-03T10:28:20.848Z,6.67
2018-05-03T10:30:48.355Z,5.20
2018-05-03T10:33:15.806Z,6.77
2018-05-03T10:35:43.386Z,6.57
2018-05-03T10:38:10.813Z,8.97
2018-05-03T10:40:38.313Z,5.00
2018-05-03T10:43:05.790Z,4.93
2018-05-03T10:45:33.273Z,7.50
2018-05-03T10:48:00.764Z,5.67
2018-05-03T10:50:28.232Z,8.50
2018-05-03T10:52:55.709Z,8.27
2018-05-03T10:55:23.180Z,6.27
2018-05-03T10:57:50.661Z,8.43
2018-05-03T11:00:18.148Z,5.60
2018-05-03T11:02:45.631Z,10.23
2018-05-03T11:05:13.127Z,4.67
2018-05-03T11:07:40.625Z,4.40
2018-05-03T11:10:08.115Z,4.60
2018-05-03T11:12:35.601Z,4.50
2018-05-03T11:15:03.085Z,4.77
2018-05-03T11:17:30.540Z,4.10
2018-05-03T11:19:58.024Z,4.00
2018-05-03T11:22:25.523Z,5.10
2018-05-03T11:24:52.995Z,4.70
2018-05-03T11:27:20.814Z,4.77
2018-05-03T11:29:48.299Z,6.00
2018-05-03T11:32:15.801Z,5.70
2018-05-03T11:34:44.031Z,6.37
2018-05-03T11:37:11.531Z,4.73
2018-05-03T11:39:39.788Z,5.57
2018-05-03T11:42:07.250Z,4.97
2018-05-03T11:44:35.510Z,5.03
2018-05-03T11:47:02.957Z,5.00
2018-05-03T11:49:30.438Z,6.30
2018-05-03T11:51:57.921Z,8.40
2018-05-03T11:54:25.386Z,5.00
2018-05-03T11:56:52.863Z,5.40
2018-05-03T11:59:20.400Z,6.37
2018-05-03T12:01:48.612Z,11.13
2018-05-03T12:04:16.518Z,6.00
2018-05-03T12:06:44.002Z,5.53
2018-05-03T12:09:11.486Z,8.10
2018-05-03T12:11:39.018Z,5.47
2018-05-03T12:14:07.727Z,4.93
2018-05-03T12:16:35.227Z,4.50
2018-05-03T12:19:02.698Z,4.83
2018-05-03T12:21:30.220Z,5.00
2018-05-03T12:23:57.681Z,5.87
2018-05-03T12:26:25.162Z,5.00
2018-05-03T12:28:53.427Z,5.10
2018-05-03T12:31:20.917Z,6.90
2018-05-03T12:33:48.385Z,5.27
2018-05-03T12:36:15.868Z,6.00
2018-05-03T12:38:43.343Z,5.80
2018-05-03T12:41:10.825Z,6.83
2018-05-03T12:43:38.321Z,10.57
2018-05-03T12:46:05.791Z,5.33
2018-05-03T12:48:33.947Z,7.43
2018-05-03T12:51:01.447Z,4.07
2018-05-03T12:53:28.930Z,4.20
2018-05-03T12:55:56.433Z,4.00
2018-05-03T12:58:23.942Z,5.03
2018-05-03T13:00:52.330Z,6.20
2018-05-03T13:03:19.701Z,5.13
2018-05-03T13:05:47.207Z,7.83
2018-05-03T13:08:15.073Z,7.03
2018-05-03T13:10:42.556Z,6.23
2018-05-03T13:13:10.811Z,4.20
2018-05-03T13:15:38.282Z,4.10
2018-05-03T13:18:05.747Z,4.13
2018-05-03T13:20:33.304Z,4.17
2018-05-03T13:23:03.018Z,4.10
2018-05-03T13:25:30.553Z,5.70
2018-05-03T13:27:58.085Z,4.73
2018-05-03T13:30:25.502Z,5.10
2018-05-03T13:32:53.759Z,5.03
2018-05-03T13:35:21.256Z,5.47
2018-05-03T13:37:48.766Z,4.23
2018-05-03T13:40:16.291Z,4.40
2018-05-03T13:42:44.473Z,4.30
2018-05-03T13:45:11.973Z,4.07
2018-05-03T13:47:40.269Z,4.70
2018-05-03T13:50:08.492Z,3.30
2018-05-03T13:52:35.982Z,5.60
2018-05-03T13:55:03.486Z,3.43
2018-05-03T13:57:30.971Z,4.07
2018-05-03T13:59:58.437Z,5.23
2018-05-03T14:02:25.934Z,6.47
2018-05-03T14:04:53.421Z,5.90
2018-05-03T14:07:20.969Z,6.67
2018-05-03T14:09:49.223Z,4.27
2018-05-03T14:12:16.682Z,3.73
2018-05-03T14:14:44.161Z,4.03
2018-05-03T14:17:11.641Z,5.47
2018-05-03T14:19:39.114Z,7.37
2018-05-03T14:22:06.595Z,3.93
2018-05-03T14:24:34.067Z,3.83
2018-05-03T14:27:01.550Z,5.13
2018-05-03T14:29:29.031Z,3.30
2018-05-03T14:31:56.524Z,4.53
2018-05-03T14:34:24.827Z,3.67
2018-05-03T14:36:52.314Z,4.33
2018-05-03T14:39:19.804Z,5.67
2018-05-03T14:41:47.269Z,4.37
2018-05-03T14:44:15.543Z,3.17
2018-05-03T14:46:43.799Z,6.03
2018-05-03T14:49:11.285Z,3.40
2018-05-03T14:51:38.798Z,11.03
2018-05-03T14:54:06.289Z,4.67
2018-05-03T14:56:33.731Z,4.80
2018-05-03T14:59:01.221Z,6.33
2018-05-03T15:01:28.715Z,4.30
2018-05-03T15:03:56.220Z,3.93
2018-05-03T15:06:24.466Z,4.43
2018-05-03T15:08:51.966Z,5.40
2018-05-03T15:11:19.452Z,10.00
2018-05-03T15:13:48.581Z,12.00
2018-05-03T15:16:16.186Z,5.00
2018-05-03T15:18:43.597Z,4.40
2018-05-03T15:21:11.101Z,8.10
2018-05-03T15:23:38.612Z,3.93
2018-05-03T15:26:06.086Z,4.30
2018-05-03T15:28:33.596Z,5.20
2018-05-03T15:31:01.069Z,3.77
2018-05-03T15:33:28.545Z,5.70
2018-05-03T15:35:56.018Z,6.10
2018-05-03T15:38:23.479Z,3.60
2018-05-03T15:40:51.757Z,4.47
2018-05-03T15:43:19.993Z,3.50
2018-05-03T15:45:47.483Z,10.70
2018-05-03T15:48:15.739Z,3.57
2018-05-03T15:50:43.209Z,7.00
2018-05-03T15:53:10.697Z,9.67
2018-05-03T15:55:38.209Z,4.83
2018-05-03T15:58:05.697Z,7.30
2018-05-03T16:00:33.974Z,8.87
2018-05-03T16:03:02.229Z,7.23
2018-05-03T16:05:29.749Z,3.77
2018-05-03T16:07:57.238Z,9.77
2018-05-03T16:10:24.780Z,37.40
2018-05-03T16:12:53.706Z,11.23
2018-05-03T16:15:21.184Z,11.93
2018-05-03T16:17:48.671Z,9.60
2018-05-03T16:20:16.147Z,5.80
2018-05-03T16:22:43.644Z,7.27
2018-05-03T16:25:11.228Z,9.13
2018-05-03T16:27:38.701Z,4.07
2018-05-03T16:30:06.218Z,14.40
2018-05-03T16:32:34.469Z,8.07
2018-05-03T16:35:02.302Z,6.47
2018-05-03T16:37:29.785Z,8.33
2018-05-03T16:39:57.237Z,7.80
2018-05-03T16:42:24.721Z,17.07
2018-05-03T16:44:52.199Z,5.30
2018-05-03T16:47:19.673Z,7.93
2018-05-03T16:49:47.213Z,6.90
2018-05-03T16:52:15.487Z,5.97
2018-05-03T16:54:44.044Z,5.20
2018-05-03T16:57:11.538Z,8.70
2018-05-03T16:59:40.046Z,3.77
2018-05-03T17:02:07.557Z,5.50
2018-05-03T17:04:35.277Z,4.17
2018-05-03T17:07:02.824Z,8.50
2018-05-03T17:09:30.349Z,3.90
2018-05-03T17:11:57.823Z,6.57
2018-05-03T17:14:25.390Z,4.50
2018-05-03T17:16:52.887Z,4.83
2018-05-03T17:19:20.400Z,6.60
2018-05-03T17:21:47.870Z,10.20
2018-05-03T17:24:15.377Z,8.03
2018-05-03T17:26:42.872Z,6.13
2018-05-03T17:29:10.394Z,7.60
2018-05-03T17:31:37.883Z,6.57
2018-05-03T17:34:05.354Z,7.30
2018-05-03T17:36:32.816Z,5.30
2018-05-03T17:39:00.334Z,9.53
2018-05-03T17:41:27.834Z,5.83
2018-05-03T17:43:55.335Z,6.90
2018-05-03T17:46:24.351Z,6.90
2018-05-03T17:48:52.610Z,6.67
2018-05-03T17:51:20.148Z,5.50
2018-05-03T17:53:47.599Z,8.00
2018-05-03T17:56:15.681Z,4.37
2018-05-03T17:58:43.184Z,4.50
2018-05-03T18:01:10.675Z,5.53
2018-05-03T18:03:38.214Z,5.90
2018-05-03T18:06:05.674Z,6.07
2018-05-03T18:08:33.219Z,6.53
2018-05-03T18:11:00.654Z,6.00
2018-05-03T18:13:28.903Z,7.80
2018-05-03T18:15:56.396Z,8.37
2018-05-03T18:18:24.646Z,6.10
2018-05-03T18:20:52.174Z,8.40
2018-05-03T18:23:19.661Z,7.70
2018-05-03T18:25:47.145Z,8.27
2018-05-03T18:28:14.789Z,8.13
2018-05-03T18:30:42.237Z,5.20
2018-05-03T18:33:09.737Z,4.33
2018-05-03T18:35:37.218Z,7.57
2018-05-03T18:38:04.800Z,9.80
2018-05-03T18:40:32.255Z,8.63
2018-05-03T18:42:59.782Z,4.37
2018-05-03T18:45:27.262Z,6.53
2018-05-03T18:47:54.749Z,5.40
2018-05-03T18:50:22.271Z,7.23
2018-05-03T18:52:49.774Z,5.57
2018-05-03T18:55:17.264Z,7.00
2018-05-03T18:57:44.780Z,3.83
2018-05-03T19:00:12.286Z,6.90
2018-05-03T19:02:39.767Z,4.00
2018-05-03T19:05:07.247Z,5.50
2018-05-03T19:07:35.603Z,7.50
2018-05-03T19:10:03.037Z,5.90
2018-05-03T19:12:30.523Z,5.50
2018-05-03T19:14:57.995Z,9.83
2018-05-03T19:17:25.516Z,4.00
2018-05-03T19:19:53.001Z,4.03
2018-05-03T19:22:20.504Z,3.30
2018-05-03T19:24:49.246Z,5.20
2018-05-03T19:27:16.741Z,4.00
2018-05-03T19:29:44.255Z,3.77
2018-05-03T19:32:12.483Z,5.37
2018-05-03T19:34:39.979Z,9.90
2018-05-03T19:37:07.478Z,3.83
2018-05-03T19:39:34.936Z,9.47
2018-05-03T19:42:03.118Z,3.20
2018-05-03T19:44:38.393Z,6.60
2018-05-03T19:47:05.899Z,3.83
2018-05-03T19:49:35.492Z,7.13
2018-05-03T19:52:04.013Z,4.67
2018-05-03T19:54:31.654Z,5.83
2018-05-03T19:57:00.303Z,7.77
2018-05-03T19:59:28.458Z,5.90
2018-05-03T20:02:01.185Z,8.30
2018-05-03T20:04:29.523Z,3.60
2018-05-03T20:06:57.240Z,6.10
2018-05-03T20:09:24.730Z,11.00
2018-05-03T20:11:52.240Z,7.27
2018-05-03T20:14:19.739Z,4.67
2018-05-03T20:16:47.222Z,5.20
2018-05-03T20:19:14.706Z,6.20
2018-05-03T20:21:42.258Z,4.00
2018-05-03T20:24:09.763Z,5.67
2018-05-03T20:26:38.022Z,3.20
2018-05-03T20:29:06.300Z,3.37
2018-05-03T20:31:34.544Z,4.30
2018-05-03T20:34:02.095Z,3.37
2018-05-03T20:36:29.522Z,3.37
2018-05-03T20:38:56.997Z,5.70
2018-05-03T20:41:24.496Z,6.43
2018-05-03T20:43:51.964Z,5.63
2018-05-03T20:46:19.444Z,5.50
2018-05-03T20:48:46.954Z,6.93
2018-05-03T20:51:14.437Z,4.23
2018-05-03T20:53:42.705Z,6.20
2018-05-03T20:56:11.201Z,6.60
2018-05-03T20:58:38.684Z,9.63
2018-05-03T21:01:06.171Z,6.77
2018-05-03T21:03:33.655Z,9.33
2018-05-03T21:06:01.138Z,5.77
2018-05-03T21:08:28.600Z,4.37
2018-05-03T21:10:56.084Z,8.40
2018-05-03T21:13:23.572Z,6.67
2018-05-03T21:15:51.842Z,8.23
2018-05-03T21:18:19.349Z,5.73
2018-05-03T21:20:46.839Z,6.07
2018-05-03T21:23:15.097Z,5.50
2018-05-03T21:25:42.683Z,5.30
2018-05-03T21:28:10.148Z,11.17
2018-05-03T21:30:37.654Z,3.60
2018-05-03T21:33:05.117Z,8.27
2018-05-03T21:35:32.586Z,6.10
2018-05-03T21:38:00.082Z,7.43
2018-05-03T21:40:27.551Z,6.93
2018-05-03T21:42:55.037Z,10.43
2018-05-03T21:45:22.521Z,10.00
2018-05-03T21:47:50.751Z,3.90
2018-05-03T21:50:19.000Z,5.40
2018-05-03T21:52:46.472Z,5.10
2018-05-03T21:55:13.948Z,4.93
2018-05-03T21:57:42.206Z,6.37
2018-05-03T22:00:09.713Z,3.70
2018-05-03T22:02:37.190Z,9.60
2018-05-03T22:05:04.840Z,5.77
2018-05-03T22:07:32.347Z,4.50
2018-05-03T22:10:00.372Z,5.60
2018-05-03T22:12:27.819Z,9.07
2018-05-03T22:14:55.335Z,7.00
2018-05-03T22:17:22.820Z,4.97
2018-05-03T22:19:50.304Z,5.57
2018-05-03T22:22:17.791Z,4.30
2018-05-03T22:24:45.261Z,5.30
2018-05-03T22:27:12.765Z,4.50
2018-05-03T22:29:40.252Z,3.70
2018-05-03T22:32:07.844Z,3.53
2018-05-03T22:34:36.541Z,6.90
2018-05-03T22:37:04.777Z,8.43
2018-05-03T22:39:32.292Z,3.53
2018-05-03T22:41:59.801Z,10.10
2018-05-03T22:44:27.276Z,4.90
2018-05-03T22:46:54.756Z,4.13
2018-05-03T22:49:22.229Z,3.63
2018-05-03T22:51:49.750Z,4.40
2018-05-03T22:54:18.040Z,7.40
2018-05-03T22:56:46.311Z,5.33
2018-05-03T22:59:14.620Z,4.93
2018-05-03T23:01:42.092Z,3.17
2018-05-03T23:04:09.594Z,13.83
2018-05-03T23:06:37.066Z,5.07
2018-05-03T23:09:04.575Z,3.53
2018-05-03T23:11:32.075Z,4.33
2018-05-03T23:14:00.320Z,5.97
2018-05-03T23:16:27.801Z,5.07
2018-05-03T23:18:56.056Z,10.03
2018-05-03T23:21:23.642Z,4.30
2018-05-03T23:23:51.123Z,6.20
2018-05-03T23:26:18.709Z,4.83
2018-05-03T23:28:46.973Z,4.33
2018-05-03T23:31:14.463Z,4.00
2018-05-03T23:33:41.989Z,6.03
2018-05-03T23:36:09.470Z,5.77
2018-05-03T23:38:36.950Z,5.03
2018-05-03T23:41:04.447Z,5.10
2018-05-03T23:43:31.953Z,5.67
2018-05-03T23:45:59.437Z,5.47
2018-05-03T23:48:26.895Z,6.13
2018-05-03T23:50:54.381Z,8.63
2018-05-03T23:53:21.901Z,5.80
2018-05-03T23:55:49.394Z,5.27
2018-05-03T23:58:16.879Z,12.00
